Terminal Aerodrome Forecast
Issued by NWS

Current Version | Previous Version | Text Only | Print | Product List | Glossary On
Versions: 1 2 3 4 5 6 7 8 9 10 11 12 13 14 15 16 17 18 19 20 21 22 23 24 25
000
FTUS46 KLOX 290400 AAB
TAFLAX
TAF AMD
KLAX 290436Z 2905/3006 27007KT P6SM SKC
     FM290530 VRB03KT 3SM BR BKN005
     FM291100 VRB03KT 4SM BR OVC007
     FM291600 VRB03KT P6SM BKN012
     FM291800 25007KT P6SM SCT250
     FM300300 19008KT 4SM BR OVC015=

USA.gov is the U.S. government's official web portal to all federal, state and local government web resources and services.